TimePST,TemperatureF,Dew PointF,Humidity,Sea Level PressureIn,VisibilityMPH,Wind Direction,Wind SpeedMPH,Gust SpeedMPH,PrecipitationIn,Events,Conditions,WindDirDegrees,DateUTC
12:15 AM,41.0,41.0,100,30.05,10.0,Calm,Calm,-,0.01,Rain,Light Rain,0,2013-11-05 08:15:00
12:35 AM,41.0,41.0,100,30.05,9.0,Calm,Calm,-,0.01,Rain,Light Rain,0,2013-11-05 08:35:00
12:55 AM,41.0,41.0,100,30.04,5.0,Calm,Calm,-,0.02,Rain,Light Rain,0,2013-11-05 08:55:00
1:15 AM,42.8,42.8,100,30.03,4.0,Calm,Calm,-,0.01,Rain,Light Rain,0,2013-11-05 09:15:00
1:35 AM,42.8,42.8,100,30.03,10.0,Calm,Calm,-,0.01,,Unknown,0,2013-11-05 09:35:00
1:55 AM,42.8,42.8,100,30.03,10.0,Calm,Calm,-,0.01,,Unknown,0,2013-11-05 09:55:00
2:15 AM,42.8,42.8,100,30.03,10.0,Calm,Calm,-,N/A,,Unknown,0,2013-11-05 10:15:00
2:35 AM,42.8,42.8,100,30.03,10.0,Calm,Calm,-,N/A,,Unknown,0,2013-11-05 10:35:00
2:55 AM,42.8,42.8,100,30.03,10.0,Calm,Calm,-,N/A,,Unknown,0,2013-11-05 10:55:00
3:15 AM,42.8,42.8,100,30.03,10.0,Calm,Calm,-,N/A,,Unknown,0,2013-11-05 11:15:00
3:35 AM,44.6,44.6,100,30.03,10.0,Calm,Calm,-,N/A,,Unknown,0,2013-11-05 11:35:00
3:55 AM,44.6,44.6,100,30.03,10.0,Calm,Calm,-,N/A,,Unknown,0,2013-11-05 11:55:00
4:15 AM,44.6,44.6,100,30.03,10.0,Calm,Calm,-,N/A,Rain,Light Rain,0,2013-11-05 12:15:00
4:35 AM,44.6,44.6,100,30.03,10.0,Calm,Calm,-,N/A,,Unknown,0,2013-11-05 12:35:00
4:55 AM,44.6,44.6,100,30.03,10.0,Calm,Calm,-,N/A,,Unknown,0,2013-11-05 12:55:00
5:15 AM,44.6,44.6,100,30.03,10.0,Calm,Calm,-,N/A,,Unknown,0,2013-11-05 13:15:00
5:35 AM,44.6,44.6,100,30.02,10.0,Calm,Calm,-,N/A,,Unknown,0,2013-11-05 13:35:00
5:55 AM,44.6,44.6,100,30.01,10.0,Calm,Calm,-,N/A,,Unknown,0,2013-11-05 13:55:00
6:15 AM,44.6,44.6,100,30.02,10.0,Calm,Calm,-,N/A,,Unknown,0,2013-11-05 14:15:00
6:35 AM,46.4,46.4,100,30.02,10.0,Calm,Calm,-,N/A,,Unknown,0,2013-11-05 14:35:00
6:55 AM,46.4,46.4,100,30.03,10.0,Calm,Calm,-,N/A,,Unknown,0,2013-11-05 14:55:00
7:15 AM,48.2,48.2,100,30.04,10.0,Calm,Calm,-,N/A,,Unknown,0,2013-11-05 15:15:00
7:35 AM,50.0,48.2,94,30.04,10.0,Calm,Calm,-,N/A,,Unknown,0,2013-11-05 15:35:00
7:55 AM,50.0,48.2,94,30.04,10.0,Calm,Calm,-,N/A,,Unknown,0,2013-11-05 15:55:00
8:15 AM,51.8,48.2,88,30.05,10.0,Calm,Calm,-,N/A,,Unknown,0,2013-11-05 16:15:00
8:35 AM,51.8,48.2,88,30.06,10.0,Calm,Calm,-,N/A,,Unknown,0,2013-11-05 16:35:00
8:55 AM,51.8,48.2,88,30.07,10.0,Calm,Calm,-,N/A,,Unknown,0,2013-11-05 16:55:00
9:15 AM,51.8,48.2,88,30.08,3.0,Calm,Calm,-,N/A,Rain,Light Rain,0,2013-11-05 17:15:00
9:35 AM,50.0,50.0,100,30.08,1.2,Calm,Calm,-,0.01,Rain,Light Rain,0,2013-11-05 17:35:00
9:55 AM,50.0,50.0,100,30.08,4.0,Calm,Calm,-,0.02,Rain,Light Rain,0,2013-11-05 17:55:00
10:15 AM,50.0,50.0,100,30.09,1.8,Calm,Calm,-,N/A,Rain,Light Rain,0,2013-11-05 18:15:00
10:35 AM,50.0,50.0,100,30.09,7.0,SW,3.5,-,N/A,,Unknown,220,2013-11-05 18:35:00
10:55 AM,50.0,50.0,100,30.10,10.0,SW,4.6,-,N/A,,Unknown,230,2013-11-05 18:55:00
11:15 AM,50.0,50.0,100,30.10,10.0,WSW,9.2,-,N/A,,Unknown,240,2013-11-05 19:15:00
11:35 AM,51.8,50.0,94,30.10,10.0,WSW,6.9,-,N/A,,Unknown,240,2013-11-05 19:35:00
11:55 AM,51.8,50.0,94,30.10,10.0,SW,5.8,-,N/A,,Unknown,220,2013-11-05 19:55:00
12:15 PM,51.8,48.2,88,30.10,10.0,SW,9.2,16.1,N/A,,Unknown,230,2013-11-05 20:15:00
12:35 PM,51.8,48.2,88,30.10,10.0,Calm,Calm,-,N/A,,Unknown,0,2013-11-05 20:35:00
12:55 PM,50.0,48.2,94,30.10,10.0,SW,3.5,-,N/A,,Unknown,220,2013-11-05 20:55:00
1:15 PM,50.0,48.2,94,30.10,3.0,SW,3.5,-,N/A,Rain,Light Rain,220,2013-11-05 21:15:00
1:35 PM,50.0,48.2,94,30.11,6.0,SW,5.8,-,N/A,,Mist,230,2013-11-05 21:35:00
1:55 PM,50.0,48.2,94,30.11,10.0,Calm,Calm,-,N/A,,Unknown,0,2013-11-05 21:55:00
2:15 PM,50.0,48.2,94,30.11,10.0,Calm,Calm,-,N/A,,Unknown,0,2013-11-05 22:15:00
2:35 PM,50.0,48.2,94,30.12,10.0,Calm,Calm,-,N/A,,Unknown,0,2013-11-05 22:35:00
2:55 PM,50.0,48.2,94,30.12,10.0,SSW,4.6,-,N/A,,Unknown,210,2013-11-05 22:55:00
3:15 PM,51.8,46.4,82,30.12,10.0,SW,3.5,-,N/A,,Unknown,220,2013-11-05 23:15:00
3:35 PM,50.0,46.4,87,30.13,10.0,Calm,Calm,-,N/A,,Unknown,0,2013-11-05 23:35:00
3:55 PM,50.0,46.4,87,30.14,10.0,Calm,Calm,-,N/A,,Unknown,0,2013-11-05 23:55:00
4:15 PM,50.0,46.4,87,30.15,10.0,Calm,Calm,-,N/A,,Unknown,0,2013-11-06 00:15:00
4:35 PM,50.0,46.4,87,30.15,10.0,Calm,Calm,-,N/A,,Unknown,0,2013-11-06 00:35:00
4:55 PM,50.0,46.4,87,30.16,10.0,Calm,Calm,-,N/A,,Unknown,0,2013-11-06 00:55:00
5:15 PM,50.0,44.6,82,30.17,10.0,Calm,Calm,-,N/A,,Unknown,0,2013-11-06 01:15:00
5:35 PM,50.0,44.6,82,30.18,10.0,Calm,Calm,-,N/A,,Unknown,0,2013-11-06 01:35:00
5:55 PM,50.0,44.6,82,30.18,10.0,Calm,Calm,-,N/A,,Unknown,0,2013-11-06 01:55:00
6:15 PM,50.0,44.6,82,30.19,10.0,Calm,Calm,-,N/A,,Unknown,0,2013-11-06 02:15:00
6:35 PM,50.0,44.6,82,30.20,10.0,Calm,Calm,-,N/A,,Unknown,0,2013-11-06 02:35:00
6:55 PM,48.2,46.4,93,30.20,10.0,Calm,Calm,-,N/A,,Unknown,0,2013-11-06 02:55:00
7:15 PM,48.2,44.6,87,30.21,10.0,Calm,Calm,-,N/A,,Unknown,0,2013-11-06 03:15:00
7:35 PM,48.2,44.6,87,30.21,10.0,Calm,Calm,-,N/A,,Unknown,0,2013-11-06 03:35:00
7:55 PM,46.4,44.6,93,30.21,10.0,Calm,Calm,-,N/A,,Unknown,0,2013-11-06 03:55:00
8:15 PM,46.4,44.6,93,30.21,10.0,Calm,Calm,-,N/A,,Unknown,0,2013-11-06 04:15:00
8:35 PM,48.2,44.6,87,30.22,10.0,Calm,Calm,-,N/A,,Unknown,0,2013-11-06 04:35:00
8:55 PM,46.4,42.8,87,30.22,10.0,Calm,Calm,-,N/A,,Unknown,0,2013-11-06 04:55:00
9:15 PM,46.4,42.8,87,30.23,10.0,Calm,Calm,-,N/A,,Unknown,0,2013-11-06 05:15:00
9:35 PM,46.4,42.8,87,30.23,10.0,Calm,Calm,-,N/A,,Unknown,0,2013-11-06 05:35:00
9:55 PM,48.2,42.8,82,30.24,10.0,Calm,Calm,-,N/A,,Unknown,0,2013-11-06 05:55:00
10:35 PM,42.8,42.8,100,30.24,10.0,Calm,Calm,-,N/A,,Unknown,0,2013-11-06 06:35:00
10:55 PM,41.0,41.0,100,30.25,10.0,Calm,Calm,-,N/A,,Unknown,0,2013-11-06 06:55:00
11:15 PM,41.0,41.0,100,30.25,10.0,Calm,Calm,-,N/A,,Unknown,0,2013-11-06 07:15:00
11:35 PM,41.0,41.0,100,30.25,10.0,Calm,Calm,-,N/A,,Unknown,0,2013-11-06 07:35:00
11:55 PM,41.0,41.0,100,30.25,10.0,Calm,Calm,-,N/A,,Unknown,0,2013-11-06 07:55:00